Nichimi Maru — JJ3251 — position and weather

sailwx.info

Track history (hours):
 
Tides and Currents Weather Stations Pressure Air Temp Water Temp Dewpoint Dewpoint Depression Visibility Wind Speed Wind Dir Waves Ship Positions

Nichimi Maru

Last reported at 2018-Jan-19 19:30 UTC. Time now 2018-Jan-19 19:47 UTC.
Position N 35°29' E 139°49'.

Length 89 m; draft 6.2 m.

Type: Tanker. MMSI: 431000495.

Date/timePositionNaut miles runAvg speedWind from/ knotsBaromVisibWave heightAir tempDewpointWater temp
2018-Jan-19 19:30N 35°29' E 139°49'0 0.0
2018-Jan-19 19:00N 35°29' E 139°49'0 0.0
2018-Jan-19 18:30N 35°29' E 139°49'0 0.0
2018-Jan-19 18:00N 35°29' E 139°49'0 0.1
2018-Jan-19 17:30N 35°29' E 139°49'0 0.1
2018-Jan-19 17:00N 35°29' E 139°49'0 0.0
2018-Jan-19 16:30N 35°29' E 139°49'0 0.0
2018-Jan-19 16:01N 35°29' E 139°49'0 0.0
2018-Jan-19 15:27N 35°29' E 139°49'0 0.0
2018-Jan-19 15:00N 35°29' E 139°49'0 0.0
2018-Jan-19 14:30N 35°29' E 139°49'0 0.0
2018-Jan-19 14:00N 35°29' E 139°49'0 0.0
2018-Jan-19 13:30N 35°29' E 139°49'0 0.0
2018-Jan-19 13:00N 35°29' E 139°49'0 0.0
2018-Jan-19 12:30N 35°29' E 139°49'2 4.1
2018-Jan-19 12:00N 35°28' E 139°47'4 8.6
2018-Jan-19 11:30N 35°25' E 139°43'3 5.7
2018-Jan-19 11:01N 35°24' E 139°39'0 0.2
2018-Jan-19 10:29N 35°25' E 139°39'0 0.0
2018-Jan-19 09:59N 35°25' E 139°39'0 0.0
2018-Jan-19 09:29N 35°25' E 139°39'0 0.1
2018-Jan-19 08:59N 35°25' E 139°39'0 0.1
2018-Jan-19 08:26N 35°25' E 139°39'0 0.0
2018-Jan-19 07:56N 35°25' E 139°39'0 0.1
2018-Jan-19 07:26N 35°25' E 139°39'0 0.0
2018-Jan-19 06:56N 35°25' E 139°39'0 0.0
2018-Jan-19 06:29N 35°25' E 139°39'0 0.0
2018-Jan-19 05:59N 35°25' E 139°39'0 0.0
2018-Jan-19 05:29N 35°25' E 139°39'0 0.1
2018-Jan-19 04:59N 35°25' E 139°39'0 0.0
2018-Jan-19 04:26N 35°25' E 139°39'0 1.2
2018-Jan-19 04:01N 35°24' E 139°40'4 8.5
2018-Jan-19 03:31N 35°26' E 139°44'611.1
2018-Jan-19 03:00N 35°29' E 139°50'611.1
2018-Jan-19 02:29N 35°32' E 139°56'511.0
2018-Jan-19 02:00N 35°35' E 140°02'3 6.1
2018-Jan-19 01:30N 35°36' E 140°05'0 0.0
2018-Jan-19 01:00N 35°36' E 140°05'0 0.0
2018-Jan-19 00:30N 35°36' E 140°05'0 0.0
2018-Jan-19 00:00N 35°36' E 140°05'0 0.0
2018-Jan-18 23:30N 35°36' E 140°05'0 0.0
2018-Jan-18 23:00N 35°36' E 140°05'0 0.1
2018-Jan-18 22:30N 35°36' E 140°05'0 0.9
2018-Jan-18 22:01N 35°36' E 140°05'2 4.7
2018-Jan-18 21:30N 35°34' E 140°03'0 0.0
2018-Jan-18 20:59N 35°34' E 140°03'0 0.0
2018-Jan-18 20:29N 35°34' E 140°03'0 0.0
2018-Jan-18 19:59N 35°34' E 140°03'0 0.0
2018-Jan-18 19:29N 35°34' E 140°03'0 0.1
2018-Jan-18 18:59N 35°34' E 140°03'0 0.0
2018-Jan-18 18:29N 35°34' E 140°03'0 0.0
2018-Jan-18 17:59N 35°34' E 140°03'0 0.0
2018-Jan-18 17:29N 35°34' E 140°03'0 0.1
2018-Jan-18 16:59N 35°34' E 140°03'0 0.0
2018-Jan-18 16:29N 35°34' E 140°03'0 0.0
2018-Jan-18 15:59N 35°34' E 140°03'0 0.0
2018-Jan-18 15:29N 35°34' E 140°03'0 0.0
2018-Jan-18 14:59N 35°34' E 140°03'0 0.2
2018-Jan-18 14:31N 35°34' E 140°03'4 8.2
2018-Jan-18 14:01N 35°32' E 139°59'4 8.7
2018-Jan-18 13:30N 35°29' E 139°54'4 8.6
2018-Jan-18 13:00N 35°27' E 139°50'4 8.7
2018-Jan-18 12:30N 35°25' E 139°45'4 8.0
2018-Jan-18 12:00N 35°24' E 139°40'1 2.5
2018-Jan-18 11:29N 35°25' E 139°39'0 0.0
2018-Jan-18 10:59N 35°25' E 139°39'0 0.0
2018-Jan-18 10:29N 35°25' E 139°39'0 0.0
2018-Jan-18 09:59N 35°25' E 139°39'0 0.0
2018-Jan-18 09:29N 35°25' E 139°39'0 0.1
2018-Jan-18 08:59N 35°25' E 139°39'0 0.1
2018-Jan-18 08:29N 35°25' E 139°39'0 0.0
2018-Jan-18 07:59N 35°25' E 139°39'0 0.0
2018-Jan-18 07:29N 35°25' E 139°39'0 0.0
2018-Jan-18 06:59N 35°25' E 139°39'0 0.0
2018-Jan-18 06:29N 35°25' E 139°39'0 0.0
2018-Jan-18 05:59N 35°25' E 139°39'0 0.0
2018-Jan-18 05:29N 35°25' E 139°39'0 0.4
2018-Jan-18 05:01N 35°24' E 139°39'3 6.8
2018-Jan-18 04:30N 35°25' E 139°44'510.8
2018-Jan-18 04:01N 35°28' E 139°49'510.7
2018-Jan-18 03:30N 35°31' E 139°54'510.7
2018-Jan-18 03:01N 35°34' E 139°60'5 9.7
2018-Jan-18 02:31N 35°36' E 140°05'0 0.1
2018-Jan-18 02:00N 35°36' E 140°05'0 0.0
2018-Jan-18 01:30N 35°36' E 140°05'0 0.0
2018-Jan-18 01:00N 35°36' E 140°05'0 0.0
2018-Jan-18 00:00N 35°36' E 140°05'0 0.0
2018-Jan-17 23:57N 35°36' E 140°05'  
2018-Jan-12 14:57N 35°34' E 140°03'0 0.0
2018-Jan-12 14:27N 35°34' E 140°03'0 0.0
2018-Jan-12 13:57N 35°34' E 140°03'0 0.0
2018-Jan-12 13:30N 35°34' E 140°03'0 0.0
2018-Jan-12 13:00N 35°34' E 140°03'0 0.0
2018-Jan-12 12:30N 35°34' E 140°03'0 0.0
2018-Jan-12 12:00N 35°34' E 140°03'0 0.1
2018-Jan-12 11:30N 35°34' E 140°03'1 2.2
2018-Jan-12 11:01N 35°33' E 140°03'4 8.5
2018-Jan-12 10:30N 35°29' E 140°01'0 0.1
2018-Jan-12 05:41N 35°29' E 140°01'0 1.2
2018-Jan-12 05:30N 35°29' E 140°01'4 8.6
2018-Jan-12 05:00N 35°33' E 140°03'4 7.2
2018-Jan-12 04:29N 35°36' E 140°05'0 0.0
2018-Jan-12 03:59N 35°36' E 140°05'0 0.1
2018-Jan-12 03:26N 35°36' E 140°05'0 0.1
2018-Jan-12 02:59N 35°36' E 140°05'0 0.1
2018-Jan-12 02:29N 35°36' E 140°05'0 0.1
2018-Jan-12 01:59N 35°36' E 140°05'0 0.0
2018-Jan-12 01:26N 35°36' E 140°05'0 0.0
2018-Jan-12 00:59N 35°36' E 140°05'0 0.0
2018-Jan-12 00:26N 35°36' E 140°05'0 0.1
2018-Jan-11 23:56N 35°36' E 140°05'0 0.1
2018-Jan-11 23:23N 35°36' E 140°05'1 1.5
2018-Jan-11 23:01N 35°36' E 140°05'2 4.1
2018-Jan-11 22:29N 35°34' E 140°03'0 0.0
2018-Jan-11 21:59N 35°34' E 140°03'0 0.1
2018-Jan-11 21:29N 35°34' E 140°03'0 0.1
2018-Jan-11 20:59N 35°34' E 140°03'0 0.1
2018-Jan-11 20:29N 35°34' E 140°03'0 0.1
2018-Jan-11 19:59N 35°34' E 140°03'0 0.0
2018-Jan-11 19:29N 35°34' E 140°03'0 0.1
2018-Jan-11 18:59N 35°34' E 140°03'0 0.0
2018-Jan-11 18:29N 35°34' E 140°03'0 0.0
2018-Jan-11 17:59N 35°34' E 140°03'0 0.0
2018-Jan-11 17:29N 35°34' E 140°03'0 0.1
2018-Jan-11 16:56N 35°34' E 140°03'0 0.0
2018-Jan-11 16:29N 35°34' E 140°03'0 0.1
2018-Jan-11 15:59N 35°34' E 140°03'0 0.0
2018-Jan-11 15:29N 35°34' E 140°03'0 0.0
2018-Jan-11 14:59N 35°34' E 140°03'0 0.0
2018-Jan-11 14:29N 35°34' E 140°03'0 0.0
2018-Jan-11 13:56N 35°34' E 140°03'0 0.1
2018-Jan-11 13:29N 35°34' E 140°03'0 0.0
2018-Jan-11 12:59N 35°34' E 140°03'0 0.0
2018-Jan-11 12:29N 35°34' E 140°03'0 0.0
2018-Jan-11 11:59N 35°34' E 140°03'0 0.1
2018-Jan-11 11:29N 35°34' E 140°03'0 0.1
2018-Jan-11 10:59N 35°34' E 140°03'0 0.1
2018-Jan-11 10:29N 35°34' E 140°03'0 0.0
2018-Jan-11 09:59N 35°34' E 140°03'0 0.0
2018-Jan-11 09:29N 35°34' E 140°03'0 0.0
2018-Jan-11 08:59N 35°34' E 140°03'0 0.0
2018-Jan-11 08:29N 35°34' E 140°03'0 0.0
2018-Jan-11 07:59N 35°34' E 140°03'0 0.0
2018-Jan-11 07:29N 35°34' E 140°03'0 0.0
2018-Jan-11 06:59N 35°34' E 140°03'0 0.0
2018-Jan-11 06:27N 35°34' E 140°03'3 5.9
2018-Jan-11 06:00N 35°32' E 140°02'1 0.1
2018-Jan-10 22:14N 35°31' E 140°03'0 0.6
2018-Jan-10 22:00N 35°31' E 140°02'4 7.2
2018-Jan-10 21:30N 35°32' E 139°58'0 0.1
2018-Jan-10 20:48N 35°32' E 139°58'0 0.0
2018-Jan-10 20:18N 35°32' E 139°58'0 0.0
2018-Jan-10 19:51N 35°32' E 139°58'0 0.0
2018-Jan-10 19:30N 35°32' E 139°58'0 0.0
2018-Jan-10 18:48N 35°32' E 139°58'0 0.0
2018-Jan-10 18:18N 35°32' E 139°58'0 0.0
2018-Jan-10 17:51N 35°32' E 139°58'0 0.1
2018-Jan-10 16:42N 35°32' E 139°58'0 0.3
2018-Jan-10 16:30N 35°32' E 139°58'0 0.1
2018-Jan-10 15:54N 35°32' E 139°58'0 0.0
2018-Jan-10 15:30N 35°32' E 139°58'0 0.0
2018-Jan-10 15:00N 35°32' E 139°58'0 0.0
2018-Jan-10 14:18N 35°32' E 139°58'0 0.0
2018-Jan-10 13:54N 35°32' E 139°58'0 0.1
2018-Jan-10 13:30N 35°32' E 139°58'0 0.1
2018-Jan-10 12:54N 35°32' E 139°58'0 0.1
2018-Jan-10 12:30N 35°32' E 139°58'0 0.1
2018-Jan-10 11:54N 35°32' E 139°58'0 0.0
2018-Jan-10 11:30N 35°32' E 139°58'0 0.0
2018-Jan-10 11:00N 35°32' E 139°58'0 0.0
2018-Jan-10 10:27N 35°32' E 139°58'0 0.0
2018-Jan-10 09:54N 35°32' E 139°58'0 0.0
2018-Jan-10 09:30N 35°32' E 139°58'0 0.0
2018-Jan-10 09:00N 35°32' E 139°58'0 0.0
2018-Jan-10 08:06N 35°32' E 139°58'0 0.1
2018-Jan-10 08:00N 35°32' E 139°58'0 0.0
2018-Jan-10 07:30N 35°32' E 139°58'0 0.0
2018-Jan-10 07:00N 35°32' E 139°58'0 0.0
2018-Jan-10 06:24N 35°32' E 139°58'0 0.0
2018-Jan-10 05:57N 35°32' E 139°58'0 0.0
2018-Jan-10 05:30N 35°32' E 139°58'0 0.0
2018-Jan-10 04:54N 35°32' E 139°58'0 0.0
2018-Jan-10 04:30N 35°32' E 139°58'0 0.0
2018-Jan-10 04:00N 35°32' E 139°58'0 0.0
2018-Jan-10 03:30N 35°32' E 139°58'0 0.0
2018-Jan-10 02:54N 35°32' E 139°58'0 0.1
2018-Jan-10 02:30N 35°32' E 139°58'0 0.0
2018-Jan-10 02:00N 35°32' E 139°58'0 0.0
2018-Jan-10 01:27N 35°32' E 139°58'0 0.1
2018-Jan-10 01:00N 35°32' E 139°58'0 0.0
2018-Jan-10 00:24N 35°32' E 139°58'0 0.0
2018-Jan-09 23:42N 35°32' E 139°58'0 0.1
2018-Jan-09 23:12N 35°32' E 139°58'0 0.1
2018-Jan-09 23:00N 35°32' E 139°58'0 0.0
2018-Jan-09 22:24N 35°32' E 139°58'0 0.0
2018-Jan-09 21:54N 35°32' E 139°58'0 0.0
2018-Jan-09 21:30N 35°32' E 139°58'0 0.0
2018-Jan-09 20:48N 35°32' E 139°58'0 0.0
2018-Jan-09 20:18N 35°32' E 139°58'0 0.0
2018-Jan-09 20:00N 35°32' E 139°58'  
Track history (hours):
 
Tides and Currents Weather Stations Pressure Air Temp Water Temp Dewpoint Dewpoint Depression Visibility Wind Speed Wind Dir Waves Ship Positions

Nichimi Maru

Last reported at 2018-Jan-19 19:30 UTC. Time now 2018-Jan-19 19:47 UTC.
Position N 35°29' E 139°49'.

Length 89 m; draft 6.2 m.

Type: Tanker. MMSI: 431000495.

Date/timePositionNaut miles runAvg speedWind from/ knotsBaromVisibWave heightAir tempDewpointWater temp
2018-Jan-19 19:30N 35°29' E 139°49'0 0.0
2018-Jan-19 19:00N 35°29' E 139°49'0 0.0
2018-Jan-19 18:30N 35°29' E 139°49'0 0.0
2018-Jan-19 18:00N 35°29' E 139°49'0 0.1
2018-Jan-19 17:30N 35°29' E 139°49'0 0.1
2018-Jan-19 17:00N 35°29' E 139°49'0 0.0
2018-Jan-19 16:30N 35°29' E 139°49'0 0.0
2018-Jan-19 16:01N 35°29' E 139°49'0 0.0
2018-Jan-19 15:27N 35°29' E 139°49'0 0.0
2018-Jan-19 15:00N 35°29' E 139°49'0 0.0
2018-Jan-19 14:30N 35°29' E 139°49'0 0.0
2018-Jan-19 14:00N 35°29' E 139°49'0 0.0
2018-Jan-19 13:30N 35°29' E 139°49'0 0.0
2018-Jan-19 13:00N 35°29' E 139°49'0 0.0
2018-Jan-19 12:30N 35°29' E 139°49'2 4.1
2018-Jan-19 12:00N 35°28' E 139°47'4 8.6
2018-Jan-19 11:30N 35°25' E 139°43'3 5.7
2018-Jan-19 11:01N 35°24' E 139°39'0 0.2
2018-Jan-19 10:29N 35°25' E 139°39'0 0.0
2018-Jan-19 09:59N 35°25' E 139°39'0 0.0
2018-Jan-19 09:29N 35°25' E 139°39'0 0.1
2018-Jan-19 08:59N 35°25' E 139°39'0 0.1
2018-Jan-19 08:26N 35°25' E 139°39'0 0.0
2018-Jan-19 07:56N 35°25' E 139°39'0 0.1
2018-Jan-19 07:26N 35°25' E 139°39'0 0.0
2018-Jan-19 06:56N 35°25' E 139°39'0 0.0
2018-Jan-19 06:29N 35°25' E 139°39'0 0.0
2018-Jan-19 05:59N 35°25' E 139°39'0 0.0
2018-Jan-19 05:29N 35°25' E 139°39'0 0.1
2018-Jan-19 04:59N 35°25' E 139°39'0 0.0
2018-Jan-19 04:26N 35°25' E 139°39'0 1.2
2018-Jan-19 04:01N 35°24' E 139°40'4 8.5
2018-Jan-19 03:31N 35°26' E 139°44'611.1
2018-Jan-19 03:00N 35°29' E 139°50'611.1
2018-Jan-19 02:29N 35°32' E 139°56'511.0
2018-Jan-19 02:00N 35°35' E 140°02'3 6.1
2018-Jan-19 01:30N 35°36' E 140°05'0 0.0
2018-Jan-19 01:00N 35°36' E 140°05'0 0.0
2018-Jan-19 00:30N 35°36' E 140°05'0 0.0
2018-Jan-19 00:00N 35°36' E 140°05'0 0.0
2018-Jan-18 23:30N 35°36' E 140°05'0 0.0
2018-Jan-18 23:00N 35°36' E 140°05'0 0.1
2018-Jan-18 22:30N 35°36' E 140°05'0 0.9
2018-Jan-18 22:01N 35°36' E 140°05'2 4.7
2018-Jan-18 21:30N 35°34' E 140°03'0 0.0
2018-Jan-18 20:59N 35°34' E 140°03'0 0.0
2018-Jan-18 20:29N 35°34' E 140°03'0 0.0
2018-Jan-18 19:59N 35°34' E 140°03'0 0.0
2018-Jan-18 19:29N 35°34' E 140°03'0 0.1
2018-Jan-18 18:59N 35°34' E 140°03'0 0.0
2018-Jan-18 18:29N 35°34' E 140°03'0 0.0
2018-Jan-18 17:59N 35°34' E 140°03'0 0.0
2018-Jan-18 17:29N 35°34' E 140°03'0 0.1
2018-Jan-18 16:59N 35°34' E 140°03'0 0.0
2018-Jan-18 16:29N 35°34' E 140°03'0 0.0
2018-Jan-18 15:59N 35°34' E 140°03'0 0.0
2018-Jan-18 15:29N 35°34' E 140°03'0 0.0
2018-Jan-18 14:59N 35°34' E 140°03'0 0.2
2018-Jan-18 14:31N 35°34' E 140°03'4 8.2
2018-Jan-18 14:01N 35°32' E 139°59'4 8.7
2018-Jan-18 13:30N 35°29' E 139°54'4 8.6
2018-Jan-18 13:00N 35°27' E 139°50'4 8.7
2018-Jan-18 12:30N 35°25' E 139°45'4 8.0
2018-Jan-18 12:00N 35°24' E 139°40'1 2.5
2018-Jan-18 11:29N 35°25' E 139°39'0 0.0
2018-Jan-18 10:59N 35°25' E 139°39'0 0.0
2018-Jan-18 10:29N 35°25' E 139°39'0 0.0
2018-Jan-18 09:59N 35°25' E 139°39'0 0.0
2018-Jan-18 09:29N 35°25' E 139°39'0 0.1
2018-Jan-18 08:59N 35°25' E 139°39'0 0.1
2018-Jan-18 08:29N 35°25' E 139°39'0 0.0
2018-Jan-18 07:59N 35°25' E 139°39'0 0.0
2018-Jan-18 07:29N 35°25' E 139°39'0 0.0
2018-Jan-18 06:59N 35°25' E 139°39'0 0.0
2018-Jan-18 06:29N 35°25' E 139°39'0 0.0
2018-Jan-18 05:59N 35°25' E 139°39'0 0.0
2018-Jan-18 05:29N 35°25' E 139°39'0 0.4
2018-Jan-18 05:01N 35°24' E 139°39'3 6.8
2018-Jan-18 04:30N 35°25' E 139°44'510.8
2018-Jan-18 04:01N 35°28' E 139°49'510.7
2018-Jan-18 03:30N 35°31' E 139°54'510.7
2018-Jan-18 03:01N 35°34' E 139°60'5 9.7
2018-Jan-18 02:31N 35°36' E 140°05'0 0.1
2018-Jan-18 02:00N 35°36' E 140°05'0 0.0
2018-Jan-18 01:30N 35°36' E 140°05'0 0.0
2018-Jan-18 01:00N 35°36' E 140°05'0 0.0
2018-Jan-18 00:00N 35°36' E 140°05'0 0.0
2018-Jan-17 23:57N 35°36' E 140°05'  
2018-Jan-12 14:57N 35°34' E 140°03'0 0.0
2018-Jan-12 14:27N 35°34' E 140°03'0 0.0
2018-Jan-12 13:57N 35°34' E 140°03'0 0.0
2018-Jan-12 13:30N 35°34' E 140°03'0 0.0
2018-Jan-12 13:00N 35°34' E 140°03'0 0.0
2018-Jan-12 12:30N 35°34' E 140°03'0 0.0
2018-Jan-12 12:00N 35°34' E 140°03'0 0.1
2018-Jan-12 11:30N 35°34' E 140°03'1 2.2
2018-Jan-12 11:01N 35°33' E 140°03'4 8.5
2018-Jan-12 10:30N 35°29' E 140°01'0 0.1
2018-Jan-12 05:41N 35°29' E 140°01'0 1.2
2018-Jan-12 05:30N 35°29' E 140°01'4 8.6
2018-Jan-12 05:00N 35°33' E 140°03'4 7.2
2018-Jan-12 04:29N 35°36' E 140°05'0 0.0
2018-Jan-12 03:59N 35°36' E 140°05'0 0.1
2018-Jan-12 03:26N 35°36' E 140°05'0 0.1
2018-Jan-12 02:59N 35°36' E 140°05'0 0.1
2018-Jan-12 02:29N 35°36' E 140°05'0 0.1
2018-Jan-12 01:59N 35°36' E 140°05'0 0.0
2018-Jan-12 01:26N 35°36' E 140°05'0 0.0
2018-Jan-12 00:59N 35°36' E 140°05'0 0.0
2018-Jan-12 00:26N 35°36' E 140°05'0 0.1
2018-Jan-11 23:56N 35°36' E 140°05'0 0.1
2018-Jan-11 23:23N 35°36' E 140°05'1 1.5
2018-Jan-11 23:01N 35°36' E 140°05'2 4.1
2018-Jan-11 22:29N 35°34' E 140°03'0 0.0
2018-Jan-11 21:59N 35°34' E 140°03'0 0.1
2018-Jan-11 21:29N 35°34' E 140°03'0 0.1
2018-Jan-11 20:59N 35°34' E 140°03'0 0.1
2018-Jan-11 20:29N 35°34' E 140°03'0 0.1
2018-Jan-11 19:59N 35°34' E 140°03'0 0.0
2018-Jan-11 19:29N 35°34' E 140°03'0 0.1
2018-Jan-11 18:59N 35°34' E 140°03'0 0.0
2018-Jan-11 18:29N 35°34' E 140°03'0 0.0
2018-Jan-11 17:59N 35°34' E 140°03'0 0.0
2018-Jan-11 17:29N 35°34' E 140°03'0 0.1
2018-Jan-11 16:56N 35°34' E 140°03'0 0.0
2018-Jan-11 16:29N 35°34' E 140°03'0 0.1
2018-Jan-11 15:59N 35°34' E 140°03'0 0.0
2018-Jan-11 15:29N 35°34' E 140°03'0 0.0
2018-Jan-11 14:59N 35°34' E 140°03'0 0.0
2018-Jan-11 14:29N 35°34' E 140°03'0 0.0
2018-Jan-11 13:56N 35°34' E 140°03'0 0.1
2018-Jan-11 13:29N 35°34' E 140°03'0 0.0
2018-Jan-11 12:59N 35°34' E 140°03'0 0.0
2018-Jan-11 12:29N 35°34' E 140°03'0 0.0
2018-Jan-11 11:59N 35°34' E 140°03'0 0.1
2018-Jan-11 11:29N 35°34' E 140°03'0 0.1
2018-Jan-11 10:59N 35°34' E 140°03'0 0.1
2018-Jan-11 10:29N 35°34' E 140°03'0 0.0
2018-Jan-11 09:59N 35°34' E 140°03'0 0.0
2018-Jan-11 09:29N 35°34' E 140°03'0 0.0
2018-Jan-11 08:59N 35°34' E 140°03'0 0.0
2018-Jan-11 08:29N 35°34' E 140°03'0 0.0
2018-Jan-11 07:59N 35°34' E 140°03'0 0.0
2018-Jan-11 07:29N 35°34' E 140°03'0 0.0
2018-Jan-11 06:59N 35°34' E 140°03'0 0.0
2018-Jan-11 06:27N 35°34' E 140°03'3 5.9
2018-Jan-11 06:00N 35°32' E 140°02'1 0.1
2018-Jan-10 22:14N 35°31' E 140°03'0 0.6
2018-Jan-10 22:00N 35°31' E 140°02'4 7.2
2018-Jan-10 21:30N 35°32' E 139°58'0 0.1
2018-Jan-10 20:48N 35°32' E 139°58'0 0.0
2018-Jan-10 20:18N 35°32' E 139°58'0 0.0
2018-Jan-10 19:51N 35°32' E 139°58'0 0.0
2018-Jan-10 19:30N 35°32' E 139°58'0 0.0
2018-Jan-10 18:48N 35°32' E 139°58'0 0.0
2018-Jan-10 18:18N 35°32' E 139°58'0 0.0
2018-Jan-10 17:51N 35°32' E 139°58'0 0.1
2018-Jan-10 16:42N 35°32' E 139°58'0 0.3
2018-Jan-10 16:30N 35°32' E 139°58'0 0.1
2018-Jan-10 15:54N 35°32' E 139°58'0 0.0
2018-Jan-10 15:30N 35°32' E 139°58'0 0.0
2018-Jan-10 15:00N 35°32' E 139°58'0 0.0
2018-Jan-10 14:18N 35°32' E 139°58'0 0.0
2018-Jan-10 13:54N 35°32' E 139°58'0 0.1
2018-Jan-10 13:30N 35°32' E 139°58'0 0.1
2018-Jan-10 12:54N 35°32' E 139°58'0 0.1
2018-Jan-10 12:30N 35°32' E 139°58'0 0.1
2018-Jan-10 11:54N 35°32' E 139°58'0 0.0
2018-Jan-10 11:30N 35°32' E 139°58'0 0.0
2018-Jan-10 11:00N 35°32' E 139°58'0 0.0
2018-Jan-10 10:27N 35°32' E 139°58'0 0.0
2018-Jan-10 09:54N 35°32' E 139°58'0 0.0
2018-Jan-10 09:30N 35°32' E 139°58'0 0.0
2018-Jan-10 09:00N 35°32' E 139°58'0 0.0
2018-Jan-10 08:06N 35°32' E 139°58'0 0.1
2018-Jan-10 08:00N 35°32' E 139°58'0 0.0
2018-Jan-10 07:30N 35°32' E 139°58'0 0.0
2018-Jan-10 07:00N 35°32' E 139°58'0 0.0
2018-Jan-10 06:24N 35°32' E 139°58'0 0.0
2018-Jan-10 05:57N 35°32' E 139°58'0 0.0
2018-Jan-10 05:30N 35°32' E 139°58'0 0.0
2018-Jan-10 04:54N 35°32' E 139°58'0 0.0
2018-Jan-10 04:30N 35°32' E 139°58'0 0.0
2018-Jan-10 04:00N 35°32' E 139°58'0 0.0
2018-Jan-10 03:30N 35°32' E 139°58'0 0.0
2018-Jan-10 02:54N 35°32' E 139°58'0 0.1
2018-Jan-10 02:30N 35°32' E 139°58'0 0.0
2018-Jan-10 02:00N 35°32' E 139°58'0 0.0
2018-Jan-10 01:27N 35°32' E 139°58'0 0.1
2018-Jan-10 01:00N 35°32' E 139°58'0 0.0
2018-Jan-10 00:24N 35°32' E 139°58'0 0.0
2018-Jan-09 23:42N 35°32' E 139°58'0 0.1
2018-Jan-09 23:12N 35°32' E 139°58'0 0.1
2018-Jan-09 23:00N 35°32' E 139°58'0 0.0
2018-Jan-09 22:24N 35°32' E 139°58'0 0.0
2018-Jan-09 21:54N 35°32' E 139°58'0 0.0
2018-Jan-09 21:30N 35°32' E 139°58'0 0.0
2018-Jan-09 20:48N 35°32' E 139°58'0 0.0
2018-Jan-09 20:18N 35°32' E 139°58'0 0.0
2018-Jan-09 20:00N 35°32' E 139°58'  

Dump ship's entire track history